CheckWX is a tool to help pilots better visualize weather data.  It is not intended as a substitute for an official pre-flight weather briefing.

00:37:27 UTC

DAOI METAR
Ech Cheliff Airport
Algeria
Current

37 mins ago

DAOI 270000Z 05010KT 9999 SCT026 10/04 Q1019
Observed
Mar-27 @ 00:00 UTC
Wind
  • 050° at 10 KTS
Visibility
10,000+ meters
Flight Rules
VFR
Cloud Levels
  • Scattered at 2,600' AGL
Temperature
10°C / 50°F
Dewpoint
C / 39°F
Humidity
67%
Altimeter
30.09" Hg
Pressure
1018.92 hPa
Previous

2 hours ago

DAOI 262300Z 06012KT 9999 SCT026 11/04 Q1019
Observed
Mar-26 @ 23:00 UTC
Wind
  • 060° at 12 KTS
Visibility
10,000+ meters
Flight Rules
VFR
Cloud Levels
  • Scattered at 2,600' AGL
Temperature
11°C / 52°F
Dewpoint
C / 39°F
Humidity
62%
Altimeter
30.09" Hg
Pressure
1018.92 hPa
Previous

3 hours ago

DAOI 262200Z 06011KT 9999 SCT026 11/04 Q1019
Observed
Mar-26 @ 22:00 UTC
Wind
  • 060° at 11 KTS
Visibility
10,000+ meters
Flight Rules
VFR
Cloud Levels
  • Scattered at 2,600' AGL
Temperature
11°C / 52°F
Dewpoint
C / 39°F
Humidity
62%
Altimeter
30.09" Hg
Pressure
1018.92 hPa